Time;durP1;ratioP1;P1;durP2;ratioP2;P2;SDS_P1;SDS_P2;PMS_P1;PMS_P2;Temp;Humidity;BMP_temperature;BMP_pressure;BME280_temperature;BME280_humidity;BME280_pressure;Samples;Min_cycle;Max_cycle;Signal;HPM_P1;HPM_P2
2021/04/02 00:02:17;;;;;;;12.33;2.90;;;;;;;;;;5068144;28;20107;-77
2021/04/02 00:04:42;;;;;;;17.17;3.10;;;;;;;;;;5067753;28;20381;-77
2021/04/02 00:07:08;;;;;;;10.80;3.27;;;;;;;;;;5068790;28;20107;-77
2021/04/02 00:09:33;;;;;;;22.57;3.57;;;;;;;;;;5067029;28;20055;-77
2021/04/02 00:11:58;;;;;;;8.37;2.97;;;;;;;;;;5069477;28;20028;-78
2021/04/02 00:14:24;;;;;;;10.60;2.97;;;;;;;;;;5068278;28;20029;-77
2021/04/02 00:16:49;;;;;;;12.40;3.37;;;;;;;;;;5068917;28;20560;-77
2021/04/02 00:19:15;;;;;;;9.73;2.80;;;;;;;;;;5068149;28;20032;-77
2021/04/02 00:21:40;;;;;;;21.03;3.70;;;;;;;;;;5068226;28;20029;-77
2021/04/02 00:24:05;;;;;;;8.87;3.33;;;;;;;;;;5068766;28;20699;-77
2021/04/02 00:26:31;;;;;;;10.73;3.17;;;;;;;;;;5068398;28;20055;-77
2021/04/02 00:28:56;;;;;;;15.97;3.00;;;;;;;;;;5064867;28;20032;-77
2021/04/02 00:31:22;;;;;;;14.47;3.70;;;;;;;;;;5068740;28;20035;-77
2021/04/02 00:33:48;;;;;;;19.67;4.63;;;;;;;;;;5065176;28;20009;-77
2021/04/02 00:36:13;;;;;;;11.90;3.40;;;;;;;;;;5069224;28;20623;-77
2021/04/02 00:38:39;;;;;;;13.60;3.83;;;;;;;;;;5067092;28;20074;-77
2021/04/02 00:41:05;;;;;;;14.67;4.07;;;;;;;;;;5068632;28;20103;-77
2021/04/02 00:43:38;;;;;;;16.97;3.80;;;;;;;;;;5066077;28;20017;-77
2021/04/02 00:46:04;;;;;;;18.10;3.93;;;;;;;;;;5066797;28;20278;-77
2021/04/02 00:48:30;;;;;;;15.37;3.80;;;;;;;;;;5069276;28;20290;-77
2021/04/02 00:50:56;;;;;;;9.57;3.47;;;;;;;;;;5067611;28;20332;-77
2021/04/02 00:53:23;;;;;;;11.47;3.87;;;;;;;;;;5070225;28;20063;-77
2021/04/02 00:55:49;;;;;;;19.57;4.30;;;;;;;;;;5068715;28;20298;-77
2021/04/02 00:58:15;;;;;;;13.20;3.83;;;;;;;;;;5073885;28;20674;-77
2021/04/02 01:00:41;;;;;;;23.03;4.27;;;;;;;;;;5072756;28;20029;-77
2021/04/02 01:03:06;;;;;;;10.10;3.70;;;;;;;;;;5073097;28;20747;-77
2021/04/02 01:05:34;;;;;;;14.80;4.07;;;;;;;;;;5069053;28;20020;-77
2021/04/02 01:08:01;;;;;;;9.97;3.83;;;;;;;;;;5072625;28;20020;-77
2021/04/02 01:10:27;;;;;;;9.53;3.67;;;;;;;;;;5082807;22;20345;-69
2021/04/02 01:13:13;;;;;;;21.17;4.47;;;;;;;;;;5070809;28;20282;-66
2021/04/02 01:15:41;;;;;;;15.67;3.83;;;;;;;;;;5068253;28;20091;-66
2021/04/02 01:18:25;;;;;;;14.53;4.37;;;;;;;;;;5070735;28;21113;-66
2021/04/02 01:20:51;;;;;;;21.50;4.47;;;;;;;;;;5070470;28;20294;-66
2021/04/02 01:23:19;;;;;;;14.23;3.80;;;;;;;;;;5073879;28;20595;-66
2021/04/02 01:26:02;;;;;;;17.00;3.97;;;;;;;;;;5070587;28;20044;-66
2021/04/02 01:28:34;;;;;;;14.53;3.87;;;;;;;;;;5072320;28;20784;-66
2021/04/02 01:31:01;;;;;;;19.98;3.97;;;;;;;;;;5047429;28;20308;-66
2021/04/02 01:33:27;;;;;;;23.03;4.20;;;;;;;;;;5070964;28;20031;-66
2021/04/02 01:35:54;;;;;;;17.70;3.63;;;;;;;;;;5078518;28;20361;-66
2021/04/02 01:38:26;;;;;;;20.47;3.90;;;;;;;;;;5070511;28;20724;-66
2021/04/02 01:40:53;;;;;;;9.20;3.43;;;;;;;;;;5075723;28;20269;-66
2021/04/02 01:43:23;;;;;;;11.63;3.70;;;;;;;;;;5077975;28;20273;-66
2021/04/02 01:45:49;;;;;;;17.07;3.50;;;;;;;;;;5075370;28;21323;-66
2021/04/02 01:48:16;;;;;;;20.93;4.33;;;;;;;;;;5072895;28;20827;-66
2021/04/02 01:50:43;;;;;;;19.93;4.37;;;;;;;;;;5073343;28;20020;-66
2021/04/02 01:53:09;;;;;;;17.13;3.97;;;;;;;;;;5076946;28;20334;-66
2021/04/02 01:55:35;;;;;;;17.30;4.03;;;;;;;;;;5082378;28;20370;-66
2021/04/02 01:58:01;;;;;;;10.17;3.60;;;;;;;;;;5075832;28;20052;-66
2021/04/02 02:00:46;;;;;;;14.53;3.83;;;;;;;;;;5069086;28;20104;-66
2021/04/02 02:03:12;;;;;;;20.60;4.37;;;;;;;;;;5049923;28;20284;-66
2021/04/02 02:05:38;;;;;;;20.17;4.10;;;;;;;;;;5053677;28;20271;-66
2021/04/02 02:08:03;;;;;;;14.67;3.97;;;;;;;;;;5049110;28;20280;-67
2021/04/02 02:10:30;;;;;;;13.70;3.90;;;;;;;;;;5048970;28;20051;-67
2021/04/02 02:12:56;;;;;;;11.87;3.80;;;;;;;;;;5054811;28;20021;-67
2021/04/02 02:15:23;;;;;;;9.07;3.37;;;;;;;;;;5055681;28;20266;-67
2021/04/02 02:17:52;;;;;;;13.10;3.33;;;;;;;;;;5052970;28;20275;-67
2021/04/02 02:20:18;;;;;;;11.90;3.27;;;;;;;;;;5062071;28;20262;-67
2021/04/02 02:22:44;;;;;;;14.60;4.13;;;;;;;;;;5054489;28;20263;-67
2021/04/02 02:25:10;;;;;;;22.77;4.17;;;;;;;;;;5060354;28;20108;-67
2021/04/02 02:27:36;;;;;;;16.40;4.30;;;;;;;;;;5052531;28;20024;-67
2021/04/02 02:30:05;;;;;;;12.60;3.20;;;;;;;;;;5052128;28;20255;-67
2021/04/02 02:32:30;;;;;;;13.03;3.50;;;;;;;;;;5052735;28;20474;-67
2021/04/02 02:34:55;;;;;;;21.47;4.13;;;;;;;;;;5051949;28;20291;-67
2021/04/02 02:37:21;;;;;;;12.27;4.37;;;;;;;;;;5051542;28;20114;-67
2021/04/02 02:39:46;;;;;;;14.03;4.27;;;;;;;;;;5051097;28;20503;-67
2021/04/02 02:42:11;;;;;;;19.33;4.10;;;;;;;;;;5052098;28;20029;-67
2021/04/02 02:44:37;;;;;;;10.20;3.57;;;;;;;;;;5054742;28;20033;-66
2021/04/02 02:47:08;;;;;;;16.17;3.80;;;;;;;;;;5056212;28;20078;-66
2021/04/02 02:49:34;;;;;;;10.67;3.80;;;;;;;;;;5040681;28;20037;-67
2021/04/02 02:51:59;;;;;;;12.43;3.90;;;;;;;;;;5051766;28;20305;-67
2021/04/02 02:54:26;;;;;;;13.17;3.70;;;;;;;;;;5051912;28;20025;-67
2021/04/02 02:56:52;;;;;;;12.67;4.03;;;;;;;;;;5051672;28;20021;-67
2021/04/02 02:59:20;;;;;;;15.80;4.10;;;;;;;;;;5050965;28;20342;-67
2021/04/02 03:01:45;;;;;;;15.63;3.67;;;;;;;;;;5052287;28;20267;-67
2021/04/02 03:04:11;;;;;;;13.40;4.10;;;;;;;;;;5051310;28;20275;-67
2021/04/02 03:06:40;;;;;;;13.63;3.80;;;;;;;;;;5051179;28;20032;-67
2021/04/02 03:09:07;;;;;;;10.87;3.30;;;;;;;;;;5050646;28;20078;-67
2021/04/02 03:11:33;;;;;;;18.73;3.73;;;;;;;;;;5050923;28;20327;-67
2021/04/02 03:13:59;;;;;;;14.07;3.70;;;;;;;;;;5051074;28;20287;-67
2021/04/02 03:16:25;;;;;;;24.27;4.10;;;;;;;;;;5051577;28;20341;-67
2021/04/02 03:18:51;;;;;;;13.07;3.50;;;;;;;;;;5055734;28;20025;-67
2021/04/02 03:21:17;;;;;;;18.17;3.47;;;;;;;;;;5050119;28;20025;-66
2021/04/02 03:23:43;;;;;;;23.90;4.50;;;;;;;;;;5051214;28;20283;-67
2021/04/02 03:26:09;;;;;;;22.27;3.60;;;;;;;;;;5051194;28;20127;-67
2021/04/02 03:28:35;;;;;;;16.40;3.67;;;;;;;;;;5051130;28;20056;-67
2021/04/02 03:31:00;;;;;;;15.43;4.37;;;;;;;;;;5050593;28;20017;-67
2021/04/02 03:33:27;;;;;;;12.90;4.07;;;;;;;;;;5051609;28;20283;-67
2021/04/02 03:35:58;;;;;;;16.47;3.83;;;;;;;;;;5051359;28;20025;-67
2021/04/02 03:38:25;;;;;;;14.77;3.83;;;;;;;;;;5051217;28;20252;-67
2021/04/02 03:40:51;;;;;;;11.00;4.00;;;;;;;;;;5050524;28;20266;-67
2021/04/02 03:43:17;;;;;;;14.57;4.10;;;;;;;;;;5054072;28;20263;-67
2021/04/02 03:45:45;;;;;;;15.60;3.67;;;;;;;;;;5046949;28;20262;-67
2021/04/02 03:48:11;;;;;;;15.53;4.10;;;;;;;;;;5051515;28;20350;-67
2021/04/02 03:50:38;;;;;;;17.97;3.90;;;;;;;;;;5049840;28;20271;-67
2021/04/02 03:53:24;;;;;;;11.17;3.57;;;;;;;;;;5051222;28;20252;-67
2021/04/02 03:55:51;;;;;;;14.23;3.90;;;;;;;;;;5051141;28;20740;-67
2021/04/02 03:58:17;;;;;;;14.17;3.93;;;;;;;;;;5050790;28;20270;-67
2021/04/02 04:00:55;;;;;;;14.87;4.13;;;;;;;;;;5046805;28;20274;-69
2021/04/02 04:03:20;;;;;;;12.77;3.60;;;;;;;;;;5050563;28;20368;-69
2021/04/02 04:05:48;;;;;;;15.30;3.90;;;;;;;;;;5050433;28;20306;-69
2021/04/02 04:08:14;;;;;;;11.87;3.70;;;;;;;;;;5049243;28;20052;-67
2021/04/02 04:10:40;;;;;;;15.77;3.90;;;;;;;;;;5046809;28;20284;-67
2021/04/02 04:13:08;;;;;;;13.30;3.37;;;;;;;;;;5050269;28;20604;-67
2021/04/02 04:15:35;;;;;;;9.63;3.67;;;;;;;;;;5053975;28;20103;-67
2021/04/02 04:18:01;;;;;;;14.00;4.03;;;;;;;;;;5050935;28;20665;-67
2021/04/02 04:20:26;;;;;;;10.90;3.37;;;;;;;;;;5049658;28;20342;-67
2021/04/02 04:22:52;;;;;;;11.07;3.53;;;;;;;;;;5050250;28;20020;-67
2021/04/02 04:25:20;;;;;;;12.93;3.47;;;;;;;;;;5049964;28;20104;-67
2021/04/02 04:27:46;;;;;;;10.90;3.37;;;;;;;;;;5049975;28;20029;-66
2021/04/02 04:30:12;;;;;;;9.43;3.57;;;;;;;;;;5051154;28;20286;-66
2021/04/02 04:32:39;;;;;;;7.57;2.87;;;;;;;;;;5054113;28;20108;-67
2021/04/02 04:35:05;;;;;;;11.03;3.07;;;;;;;;;;5053972;28;20264;-67
2021/04/02 04:37:31;;;;;;;14.30;3.10;;;;;;;;;;5054673;28;20262;-66
2021/04/02 04:39:57;;;;;;;12.90;3.10;;;;;;;;;;5063930;28;20063;-66
2021/04/02 04:42:22;;;;;;;8.93;3.30;;;;;;;;;;5058286;28;20271;-67
2021/04/02 04:44:49;;;;;;;7.87;2.67;;;;;;;;;;5054037;28;20107;-67
2021/04/02 04:47:15;;;;;;;10.00;2.80;;;;;;;;;;5054465;28;20112;-67
2021/04/02 04:49:41;;;;;;;9.17;2.57;;;;;;;;;;5053778;28;20665;-67
2021/04/02 04:52:07;;;;;;;10.07;2.67;;;;;;;;;;5053999;28;20294;-67
2021/04/02 04:54:33;;;;;;;7.80;2.43;;;;;;;;;;5062399;28;20025;-67
2021/04/02 04:56:59;;;;;;;12.07;2.33;;;;;;;;;;5054547;28;20298;-66
2021/04/02 04:59:26;;;;;;;12.47;2.70;;;;;;;;;;5053527;28;20306;-66
2021/04/02 05:01:54;;;;;;;7.20;2.00;;;;;;;;;;5054622;28;20048;-67
2021/04/02 05:04:19;;;;;;;8.13;2.50;;;;;;;;;;5052849;28;20278;-67
2021/04/02 05:06:47;;;;;;;10.67;2.50;;;;;;;;;;5054339;28;20623;-66
2021/04/02 05:09:14;;;;;;;7.83;2.27;;;;;;;;;;5052545;28;20461;-67
2021/04/02 05:11:40;;;;;;;7.10;2.33;;;;;;;;;;5053592;28;20288;-67
2021/04/02 05:14:07;;;;;;;8.53;2.47;;;;;;;;;;5056487;28;20342;-66
2021/04/02 05:16:33;;;;;;;5.97;2.30;;;;;;;;;;5054422;28;20263;-67
2021/04/02 05:18:58;;;;;;;9.83;2.77;;;;;;;;;;5053665;28;20692;-67
2021/04/02 05:21:23;;;;;;;6.30;2.27;;;;;;;;;;5054165;28;20021;-67
2021/04/02 05:23:49;;;;;;;6.23;2.00;;;;;;;;;;5052808;28;20037;-67
2021/04/02 05:26:15;;;;;;;9.63;2.63;;;;;;;;;;5053963;28;20032;-67
2021/04/02 05:28:40;;;;;;;9.03;2.00;;;;;;;;;;5053957;28;20382;-67
2021/04/02 05:31:06;;;;;;;6.93;2.30;;;;;;;;;;5053413;28;20036;-66
2021/04/02 05:33:31;;;;;;;7.63;2.10;;;;;;;;;;5060856;28;20032;-67
2021/04/02 05:35:57;;;;;;;4.70;2.23;;;;;;;;;;5052964;28;20021;-67
2021/04/02 05:38:22;;;;;;;9.13;2.53;;;;;;;;;;5052900;28;20036;-66
2021/04/02 05:40:47;;;;;;;8.53;2.10;;;;;;;;;;5053479;28;20155;-66
2021/04/02 05:43:12;;;;;;;8.00;1.90;;;;;;;;;;5053286;28;20472;-67
2021/04/02 05:45:38;;;;;;;5.63;2.30;;;;;;;;;;5053508;28;20028;-66
2021/04/02 05:48:03;;;;;;;10.00;2.30;;;;;;;;;;5053522;28;20036;-67
2021/04/02 05:50:32;;;;;;;6.57;2.43;;;;;;;;;;5053864;28;20389;-67
2021/04/02 05:53:01;;;;;;;8.07;2.30;;;;;;;;;;5054161;28;20461;-67
2021/04/02 05:55:27;;;;;;;7.87;2.20;;;;;;;;;;5052780;28;20273;-67
2021/04/02 05:57:52;;;;;;;11.10;2.67;;;;;;;;;;5054050;28;20350;-67
2021/04/02 06:00:18;;;;;;;8.17;2.00;;;;;;;;;;5053990;28;20074;-67
2021/04/02 06:02:44;;;;;;;6.53;1.87;;;;;;;;;;5053505;28;20064;-67
2021/04/02 06:05:10;;;;;;;6.37;1.97;;;;;;;;;;5052966;28;20033;-67
2021/04/02 06:07:38;;;;;;;4.10;1.77;;;;;;;;;;5054079;28;20283;-67
2021/04/02 06:10:05;;;;;;;6.47;1.83;;;;;;;;;;5052570;28;20033;-67
2021/04/02 06:12:34;;;;;;;7.47;2.33;;;;;;;;;;5053832;28;20271;-66
2021/04/02 06:15:00;;;;;;;6.87;2.07;;;;;;;;;;5043050;28;20286;-67
2021/04/02 06:17:25;;;;;;;8.43;2.40;;;;;;;;;;5050035;28;20803;-66
2021/04/02 06:20:04;;;;;;;8.93;2.00;;;;;;;;;;5052982;28;20036;-66
2021/04/02 06:22:30;;;;;;;5.40;2.30;;;;;;;;;;5053903;28;20017;-66
2021/04/02 06:25:01;;;;;;;8.93;2.63;;;;;;;;;;5051891;28;20276;-66
2021/04/02 06:27:28;;;;;;;10.43;2.53;;;;;;;;;;5052710;28;20040;-66
2021/04/02 06:30:01;;;;;;;7.00;2.17;;;;;;;;;;5052973;28;20275;-66
2021/04/02 06:32:37;;;;;;;9.83;2.13;;;;;;;;;;5052960;28;20278;-66
2021/04/02 06:35:06;;;;;;;9.33;2.40;;;;;;;;;;5053427;28;20740;-66
2021/04/02 06:37:32;;;;;;;31.57;3.40;;;;;;;;;;5052777;28;20744;-66
2021/04/02 06:39:57;;;;;;;8.67;2.67;;;;;;;;;;5052851;28;20268;-66
2021/04/02 06:42:30;;;;;;;8.93;3.07;;;;;;;;;;5051875;28;20497;-67
2021/04/02 06:44:59;;;;;;;11.50;2.75;;;;;;;;;;5048297;28;20096;-66
2021/04/02 06:47:31;;;;;;;6.70;2.03;;;;;;;;;;5052872;28;20362;-66
2021/04/02 06:49:56;;;;;;;7.93;2.17;;;;;;;;;;5052585;28;20354;-66
2021/04/02 06:52:23;;;;;;;9.13;2.43;;;;;;;;;;5053068;28;20361;-66
2021/04/02 06:54:48;;;;;;;13.37;2.37;;;;;;;;;;5051450;28;20023;-66
2021/04/02 06:57:14;;;;;;;7.40;2.00;;;;;;;;;;5052724;28;20267;-66
2021/04/02 06:59:40;;;;;;;9.63;2.40;;;;;;;;;;5052407;28;20036;-66
2021/04/02 07:02:07;;;;;;;8.07;1.90;;;;;;;;;;5052241;28;20021;-66
2021/04/02 07:04:32;;;;;;;7.40;1.80;;;;;;;;;;5051692;28;20384;-67
2021/04/02 07:06:59;;;;;;;4.50;1.37;;;;;;;;;;5051748;28;20275;-66
2021/04/02 07:09:26;;;;;;;5.63;1.60;;;;;;;;;;5046584;28;20017;-66
2021/04/02 07:11:53;;;;;;;4.93;1.20;;;;;;;;;;5051398;28;20302;-66
2021/04/02 07:14:19;;;;;;;6.40;1.63;;;;;;;;;;5052003;28;20041;-66
2021/04/02 07:16:44;;;;;;;7.10;1.50;;;;;;;;;;5052377;28;20310;-66
2021/04/02 07:19:10;;;;;;;4.13;1.20;;;;;;;;;;5051659;28;20029;-66
2021/04/02 07:21:35;;;;;;;4.60;1.40;;;;;;;;;;5051741;28;20023;-66
2021/04/02 07:24:01;;;;;;;7.93;2.30;;;;;;;;;;5052344;28;20775;-66
2021/04/02 07:26:27;;;;;;;7.17;2.37;;;;;;;;;;5051797;28;20017;-66
2021/04/02 07:28:53;;;;;;;11.10;2.50;;;;;;;;;;5051085;28;20028;-67
2021/04/02 07:31:19;;;;;;;8.77;2.13;;;;;;;;;;5051782;28;20032;-67
2021/04/02 07:33:46;;;;;;;8.60;2.23;;;;;;;;;;5051558;28;20016;-66
2021/04/02 07:36:14;;;;;;;7.20;1.67;;;;;;;;;;5051571;28;20028;-66
2021/04/02 07:38:40;;;;;;;6.33;1.90;;;;;;;;;;5052001;28;20492;-67
2021/04/02 07:41:10;;;;;;;4.27;1.70;;;;;;;;;;5051858;28;20021;-66
2021/04/02 07:43:41;;;;;;;7.73;1.87;;;;;;;;;;5051654;28;20021;-67
2021/04/02 07:46:14;;;;;;;8.40;2.07;;;;;;;;;;5050932;28;20025;-66
2021/04/02 07:48:39;;;;;;;8.73;1.60;;;;;;;;;;5050376;28;20025;-66
2021/04/02 07:51:05;;;;;;;5.47;1.70;;;;;;;;;;5050345;28;20155;-67
2021/04/02 07:53:30;;;;;;;3.80;1.47;;;;;;;;;;5051640;28;20025;-66
2021/04/02 07:56:15;;;;;;;8.13;1.97;;;;;;;;;;5052095;28;20032;-66
2021/04/02 07:58:48;;;;;;;6.30;1.60;;;;;;;;;;5051054;28;20112;-66
2021/04/02 08:01:16;;;;;;;6.00;1.77;;;;;;;;;;5051759;28;20388;-66
2021/04/02 08:03:43;;;;;;;6.27;1.27;;;;;;;;;;5052091;28;20064;-67
2021/04/02 08:06:10;;;;;;;20.30;2.30;;;;;;;;;;5051999;28;20485;-66
2021/04/02 08:08:45;;;;;;;7.40;1.97;;;;;;;;;;5050785;28;20029;-67
2021/04/02 08:11:19;;;;;;;5.53;1.60;;;;;;;;;;5049608;28;20048;-67
2021/04/02 08:13:59;;;;;;;6.93;1.70;;;;;;;;;;5051722;28;20027;-67
2021/04/02 08:16:33;;;;;;;5.50;1.70;;;;;;;;;;5051638;28;20052;-67
2021/04/02 08:19:19;;;;;;;7.60;1.67;;;;;;;;;;5051124;28;20036;-67
2021/04/02 08:21:49;;;;;;;6.33;1.60;;;;;;;;;;5043040;28;20516;-67
2021/04/02 08:24:16;;;;;;;8.80;1.70;;;;;;;;;;5051762;28;20056;-66
2021/04/02 08:26:42;;;;;;;5.97;1.60;;;;;;;;;;5051628;28;20033;-67
2021/04/02 08:29:08;;;;;;;4.97;1.70;;;;;;;;;;5050783;28;20029;-67
2021/04/02 08:31:34;;;;;;;5.90;1.83;;;;;;;;;;5051267;28;20432;-67
2021/04/02 08:34:00;;;;;;;5.67;1.93;;;;;;;;;;5051429;28;20032;-67
2021/04/02 08:36:26;;;;;;;4.43;1.53;;;;;;;;;;5051697;28;20021;-67
2021/04/02 08:38:52;;;;;;;7.17;1.50;;;;;;;;;;5051354;28;20031;-66
2021/04/02 08:41:18;;;;;;;7.23;1.87;;;;;;;;;;5051257;28;20488;-67
2021/04/02 08:43:44;;;;;;;7.13;1.70;;;;;;;;;;5051660;28;20180;-67
2021/04/02 08:46:09;;;;;;;5.47;1.50;;;;;;;;;;5050539;28;20038;-67
2021/04/02 08:48:34;;;;;;;7.17;2.03;;;;;;;;;;5050079;28;20059;-67
2021/04/02 08:51:00;;;;;;;5.30;1.53;;;;;;;;;;5050241;28;20397;-67
2021/04/02 08:53:37;;;;;;;8.23;1.77;;;;;;;;;;5047423;28;20021;-67
2021/04/02 08:56:03;;;;;;;5.13;1.90;;;;;;;;;;5050846;28;20017;-68
2021/04/02 08:58:28;;;;;;;4.20;1.30;;;;;;;;;;5050530;28;20055;-67
2021/04/02 09:00:53;;;;;;;3.23;1.03;;;;;;;;;;5048593;28;20025;-67
2021/04/02 09:03:19;;;;;;;4.00;1.37;;;;;;;;;;5044391;28;20107;-67
2021/04/02 09:05:44;;;;;;;10.07;1.50;;;;;;;;;;5035357;28;20114;-68
2021/04/02 09:08:10;;;;;;;8.00;1.60;;;;;;;;;;5047095;28;20056;-68
2021/04/02 09:10:36;;;;;;;3.20;1.43;;;;;;;;;;5046883;28;20141;-68
2021/04/02 09:13:02;;;;;;;3.47;1.30;;;;;;;;;;5044385;28;20025;-68
2021/04/02 09:15:28;;;;;;;4.50;1.33;;;;;;;;;;5045513;28;20036;-69
2021/04/02 09:17:53;;;;;;;3.53;1.10;;;;;;;;;;5045065;28;20036;-69
2021/04/02 09:20:19;;;;;;;4.90;1.10;;;;;;;;;;5053836;28;20043;-69
2021/04/02 09:22:46;;;;;;;3.57;1.10;;;;;;;;;;5051143;28;20037;-69
2021/04/02 09:25:16;;;;;;;5.60;1.93;;;;;;;;;;5050685;28;20035;-71
2021/04/02 09:27:41;;;;;;;7.20;1.30;;;;;;;;;;5051520;28;20541;-71
2021/04/02 09:30:07;;;;;;;4.33;0.97;;;;;;;;;;5050831;28;20025;-72
2021/04/02 09:32:33;;;;;;;4.23;1.20;;;;;;;;;;5050895;28;20028;-70
2021/04/02 09:35:03;;;;;;;3.23;1.20;;;;;;;;;;5050084;28;20036;-69
2021/04/02 09:37:28;;;;;;;4.83;1.10;;;;;;;;;;5047556;28;20076;-68
2021/04/02 09:39:57;;;;;;;10.37;1.30;;;;;;;;;;5049805;28;20401;-69
2021/04/02 09:42:23;;;;;;;3.40;1.00;;;;;;;;;;5043601;28;20029;-69
2021/04/02 09:44:48;;;;;;;9.10;1.70;;;;;;;;;;5045641;28;20043;-68
2021/04/02 09:47:14;;;;;;;6.63;1.73;;;;;;;;;;5046169;28;20515;-68
2021/04/02 09:49:39;;;;;;;71.53;21.67;;;;;;;;;;5045678;28;20098;-69
2021/04/02 09:52:05;;;;;;;45.73;18.73;;;;;;;;;;5046123;28;20025;-67
2021/04/02 09:54:32;;;;;;;4.67;1.83;;;;;;;;;;5047614;28;20036;-70
2021/04/02 09:56:59;;;;;;;30.17;8.03;;;;;;;;;;5048571;28;20039;-68
2021/04/02 09:59:25;;;;;;;7.63;2.00;;;;;;;;;;5049300;28;20035;-68
2021/04/02 10:01:50;;;;;;;19.40;5.83;;;;;;;;;;5047277;28;20104;-67
2021/04/02 10:04:16;;;;;;;9.63;1.70;;;;;;;;;;5047486;28;20040;-68
2021/04/02 10:06:42;;;;;;;6.47;1.40;;;;;;;;;;5047337;28;20040;-68
2021/04/02 10:09:08;;;;;;;9.20;1.80;;;;;;;;;;5047461;28;20025;-67
2021/04/02 10:11:34;;;;;;;7.77;1.63;;;;;;;;;;5048328;28;20533;-69
2021/04/02 10:14:00;;;;;;;9.47;2.67;;;;;;;;;;5047258;28;20028;-67
2021/04/02 10:16:25;;;;;;;11.73;1.73;;;;;;;;;;5047504;28;20033;-67
2021/04/02 10:18:51;;;;;;;3.33;1.20;;;;;;;;;;5048555;28;20112;-67
2021/04/02 10:21:17;;;;;;;3.83;1.40;;;;;;;;;;5049410;28;20541;-67
2021/04/02 10:23:42;;;;;;;8.90;1.30;;;;;;;;;;5047374;28;20025;-67
2021/04/02 10:26:08;;;;;;;4.40;1.30;;;;;;;;;;5049448;28;20037;-67
2021/04/02 10:28:33;;;;;;;8.53;1.40;;;;;;;;;;5046507;28;20052;-67
2021/04/02 10:30:59;;;;;;;4.77;1.27;;;;;;;;;;5048827;28;20049;-66
2021/04/02 10:33:24;;;;;;;3.13;0.93;;;;;;;;;;5047032;28;20071;-66
2021/04/02 10:35:50;;;;;;;4.53;0.90;;;;;;;;;;5048587;28;20017;-67
2021/04/02 10:38:15;;;;;;;9.17;1.47;;;;;;;;;;5048828;28;20032;-67
2021/04/02 10:40:40;;;;;;;9.03;1.53;;;;;;;;;;5047185;28;20060;-68
2021/04/02 10:43:06;;;;;;;6.67;1.60;;;;;;;;;;5046492;28;20032;-68
2021/04/02 10:45:32;;;;;;;7.13;1.33;;;;;;;;;;5043486;28;20552;-71
2021/04/02 10:47:58;;;;;;;5.87;2.17;;;;;;;;;;5045302;28;20124;-68
2021/04/02 10:50:23;;;;;;;5.07;1.60;;;;;;;;;;5047612;28;20036;-68
2021/04/02 10:52:49;;;;;;;7.67;1.40;;;;;;;;;;5044561;28;20017;-68
2021/04/02 10:55:15;;;;;;;4.07;1.27;;;;;;;;;;5045651;28;20078;-68
2021/04/02 10:57:40;;;;;;;6.80;1.20;;;;;;;;;;5045863;28;20095;-68
2021/04/02 11:00:06;;;;;;;5.57;1.40;;;;;;;;;;5047082;28;20111;-68
2021/04/02 11:02:32;;;;;;;5.20;1.30;;;;;;;;;;5044926;28;20025;-68
2021/04/02 11:04:59;;;;;;;9.33;1.30;;;;;;;;;;5045878;28;20029;-68
2021/04/02 11:07:24;;;;;;;8.17;1.37;;;;;;;;;;5046443;28;20115;-68
2021/04/02 11:09:50;;;;;;;11.33;1.33;;;;;;;;;;5044151;28;20115;-68
2021/04/02 11:12:15;;;;;;;5.60;1.50;;;;;;;;;;5044919;28;20037;-68
2021/04/02 11:14:40;;;;;;;7.03;1.77;;;;;;;;;;5042160;28;20526;-68
2021/04/02 11:17:06;;;;;;;9.63;1.50;;;;;;;;;;5045502;28;20028;-68
2021/04/02 11:19:31;;;;;;;4.30;1.17;;;;;;;;;;5042228;28;20539;-68
2021/04/02 11:21:56;;;;;;;4.97;1.50;;;;;;;;;;5048106;28;20056;-68
2021/04/02 11:24:21;;;;;;;4.43;1.30;;;;;;;;;;5046892;28;20524;-68
2021/04/02 11:26:47;;;;;;;6.67;1.30;;;;;;;;;;5046090;28;20032;-68
2021/04/02 11:29:12;;;;;;;6.27;1.03;;;;;;;;;;5046541;28;20123;-68
2021/04/02 11:31:37;;;;;;;6.13;1.60;;;;;;;;;;5044419;28;20392;-68
2021/04/02 11:34:03;;;;;;;10.93;1.50;;;;;;;;;;5047036;28;20455;-68
2021/04/02 11:36:28;;;;;;;5.27;1.37;;;;;;;;;;5046807;28;20020;-68
2021/04/02 11:38:54;;;;;;;6.03;1.40;;;;;;;;;;5044716;28;20025;-68
2021/04/02 11:41:19;;;;;;;5.70;1.50;;;;;;;;;;5048441;28;20037;-68
2021/04/02 11:43:44;;;;;;;7.63;1.50;;;;;;;;;;5046616;28;20481;-68
2021/04/02 11:46:09;;;;;;;11.03;1.27;;;;;;;;;;5044964;28;20068;-68
2021/04/02 11:48:35;;;;;;;5.80;1.40;;;;;;;;;;5044438;28;20025;-68
2021/04/02 11:51:00;;;;;;;7.20;1.10;;;;;;;;;;5044010;28;20120;-68
2021/04/02 11:53:26;;;;;;;5.17;1.10;;;;;;;;;;5045282;28;20060;-68
2021/04/02 11:55:51;;;;;;;7.83;1.30;;;;;;;;;;5045409;28;20667;-68
2021/04/02 11:58:16;;;;;;;5.03;1.23;;;;;;;;;;5047255;28;20028;-68
2021/04/02 12:00:42;;;;;;;3.83;1.20;;;;;;;;;;5041055;28;20511;-68
2021/04/02 12:03:07;;;;;;;5.67;1.10;;;;;;;;;;5044451;28;20454;-68
2021/04/02 12:05:32;;;;;;;4.97;1.23;;;;;;;;;;5045993;28;20758;-68
2021/04/02 12:07:58;;;;;;;6.30;1.33;;;;;;;;;;5047270;28;20047;-68
2021/04/02 12:10:23;;;;;;;6.00;1.20;;;;;;;;;;5045857;28;20794;-68
2021/04/02 12:12:49;;;;;;;6.87;1.20;;;;;;;;;;5044853;28;20029;-68
2021/04/02 12:15:14;;;;;;;5.27;1.57;;;;;;;;;;5045513;28;20422;-68
2021/04/02 12:17:40;;;;;;;3.37;1.00;;;;;;;;;;5042962;28;20033;-68
2021/04/02 12:20:13;;;;;;;10.23;1.97;;;;;;;;;;5047014;28;20282;-68
2021/04/02 12:22:39;;;;;;;7.90;1.30;;;;;;;;;;5044745;28;20033;-68
2021/04/02 12:25:14;;;;;;;7.17;1.50;;;;;;;;;;5047346;28;20035;-68
2021/04/02 12:27:39;;;;;;;3.53;0.90;;;;;;;;;;5037591;28;20025;-68
2021/04/02 12:30:06;;;;;;;4.03;1.20;;;;;;;;;;5044219;28;20461;-68
2021/04/02 12:32:32;;;;;;;4.43;1.20;;;;;;;;;;5041102;28;20056;-68
2021/04/02 12:34:57;;;;;;;5.10;1.30;;;;;;;;;;5045268;28;20129;-68
2021/04/02 12:37:22;;;;;;;6.00;1.27;;;;;;;;;;5047821;28;20021;-68
2021/04/02 12:39:47;;;;;;;9.10;1.37;;;;;;;;;;5042811;28;20043;-68
2021/04/02 12:42:13;;;;;;;3.70;1.17;;;;;;;;;;5046918;28;20033;-68
2021/04/02 12:44:38;;;;;;;5.63;1.63;;;;;;;;;;5045328;28;20060;-68
2021/04/02 12:47:03;;;;;;;6.43;1.40;;;;;;;;;;5045588;28;20389;-68
2021/04/02 12:49:29;;;;;;;4.07;1.10;;;;;;;;;;5045661;28;20397;-68
2021/04/02 12:51:54;;;;;;;8.83;1.40;;;;;;;;;;5047352;28;20029;-68
2021/04/02 12:54:19;;;;;;;11.60;1.63;;;;;;;;;;5051036;28;20032;-68
2021/04/02 12:56:45;;;;;;;2.90;1.27;;;;;;;;;;5049339;28;20047;-68
2021/04/02 12:59:10;;;;;;;5.93;1.80;;;;;;;;;;5048487;28;20481;-68
2021/04/02 13:01:35;;;;;;;7.60;1.27;;;;;;;;;;5048317;28;20190;-68
2021/04/02 13:04:01;;;;;;;5.27;1.83;;;;;;;;;;5048595;28;20039;-68
2021/04/02 13:06:26;;;;;;;6.90;1.80;;;;;;;;;;5049352;28;20060;-68
2021/04/02 13:08:52;;;;;;;3.83;1.13;;;;;;;;;;5049113;28;20063;-68
2021/04/02 13:11:19;;;;;;;5.00;1.40;;;;;;;;;;5049596;28;20052;-68
2021/04/02 13:13:45;;;;;;;6.33;1.70;;;;;;;;;;5046464;28;20025;-68
2021/04/02 13:16:10;;;;;;;4.60;1.20;;;;;;;;;;5048226;28;20029;-68
2021/04/02 13:18:36;;;;;;;6.07;1.57;;;;;;;;;;5048755;28;20067;-68
2021/04/02 13:21:01;;;;;;;9.23;1.63;;;;;;;;;;5050099;28;20466;-68
2021/04/02 13:23:26;;;;;;;9.90;1.30;;;;;;;;;;5050592;28;20451;-68
2021/04/02 13:25:52;;;;;;;9.07;1.60;;;;;;;;;;5047698;28;20064;-67
2021/04/02 13:28:17;;;;;;;2.67;1.10;;;;;;;;;;5049242;28;20036;-67
2021/04/02 13:30:42;;;;;;;6.10;1.10;;;;;;;;;;5049521;28;20035;-67
2021/04/02 13:33:07;;;;;;;4.47;1.40;;;;;;;;;;5046610;28;20461;-67
2021/04/02 13:35:33;;;;;;;8.90;1.30;;;;;;;;;;5049276;28;20028;-67
2021/04/02 13:37:58;;;;;;;3.07;1.10;;;;;;;;;;5045806;28;20036;-67
2021/04/02 13:40:25;;;;;;;7.80;1.60;;;;;;;;;;5048893;28;20540;-68
2021/04/02 13:42:50;;;;;;;7.13;1.67;;;;;;;;;;5044041;28;20045;-68
2021/04/02 13:45:16;;;;;;;3.83;1.20;;;;;;;;;;5048208;28;20065;-67
2021/04/02 13:47:41;;;;;;;3.70;1.40;;;;;;;;;;5050142;28;20032;-67
2021/04/02 13:50:07;;;;;;;5.10;1.00;;;;;;;;;;5048218;28;20576;-67
2021/04/02 13:52:32;;;;;;;6.80;1.20;;;;;;;;;;5048410;28;20394;-67
2021/04/02 13:54:57;;;;;;;4.60;1.80;;;;;;;;;;5048091;28;20059;-67
2021/04/02 13:57:23;;;;;;;4.50;1.47;;;;;;;;;;5048647;28;20029;-68
2021/04/02 13:59:48;;;;;;;3.47;1.10;;;;;;;;;;5048009;28;20100;-68
2021/04/02 14:02:14;;;;;;;7.03;1.37;;;;;;;;;;5046608;28;20068;-68
2021/04/02 14:04:39;;;;;;;5.77;1.07;;;;;;;;;;5046336;28;20075;-68
2021/04/02 14:07:04;;;;;;;5.03;1.17;;;;;;;;;;5047232;28;20475;-68
2021/04/02 14:09:31;;;;;;;3.73;0.93;;;;;;;;;;5046325;28;20116;-68
2021/04/02 14:11:56;;;;;;;2.60;0.60;;;;;;;;;;5051735;28;20053;-68
2021/04/02 14:14:21;;;;;;;3.53;1.13;;;;;;;;;;5049369;28;20025;-68
2021/04/02 14:16:47;;;;;;;2.27;0.87;;;;;;;;;;5045703;28;20103;-68
2021/04/02 14:19:12;;;;;;;1.77;0.60;;;;;;;;;;5042357;28;20033;-68
2021/04/02 14:21:39;;;;;;;3.47;1.10;;;;;;;;;;5049793;28;20037;-68
2021/04/02 14:24:05;;;;;;;5.00;0.97;;;;;;;;;;5049537;28;20033;-68
2021/04/02 14:26:30;;;;;;;4.47;0.70;;;;;;;;;;5048527;28;20105;-68
2021/04/02 14:28:55;;;;;;;2.70;0.80;;;;;;;;;;5044714;28;20086;-68
2021/04/02 14:31:21;;;;;;;6.40;1.00;;;;;;;;;;5048753;28;20036;-68
2021/04/02 14:33:46;;;;;;;4.83;0.93;;;;;;;;;;5049274;28;20082;-68
2021/04/02 14:36:11;;;;;;;5.13;0.90;;;;;;;;;;5049727;28;20106;-68